createdAt,value
2022-08-03T00:01:06.272Z,100962.94
2022-08-03T00:04:33.582Z,100957.75
2022-08-03T00:07:58.039Z,100956.16
2022-08-03T00:11:20.235Z,100951.94
2022-08-03T00:14:42.569Z,100955.78
2022-08-03T00:18:04.467Z,100960.19
2022-08-03T00:21:26.270Z,100963.84
2022-08-03T00:24:49.527Z,100958.00
2022-08-03T00:28:11.579Z,100955.63
2022-08-03T00:31:44.963Z,100953.47
2022-08-03T00:35:35.149Z,100960.44
2022-08-03T00:38:57.500Z,100955.88
2022-08-03T00:42:20.990Z,100955.22
2022-08-03T00:45:45.244Z,100964.81
2022-08-03T00:49:07.581Z,100972.16
2022-08-03T00:52:29.821Z,100977.59
2022-08-03T00:55:51.850Z,100980.59
2022-08-03T00:59:15.993Z,100980.84
2022-08-03T01:02:38.319Z,100963.06
2022-08-03T01:06:08.723Z,100944.41
2022-08-03T01:09:45.254Z,100976.41
2022-08-03T01:14:01.715Z,100978.16
2022-08-03T01:17:14.628Z,100976.66
2022-08-03T01:20:42.095Z,100965.81
2022-08-03T01:24:13.496Z,100982.88
2022-08-03T01:27:52.390Z,100982.94
2022-08-03T01:31:17.052Z,100988.03
2022-08-03T01:34:56.994Z,100980.13
2022-08-03T01:38:25.594Z,100986.94
2022-08-03T01:41:50.776Z,100985.03
2022-08-03T01:45:15.102Z,100986.75
2022-08-03T01:48:41.166Z,100984.97
2022-08-03T01:52:05.555Z,100986.41
2022-08-03T01:55:28.863Z,100986.22
2022-08-03T01:58:55.245Z,100982.47
2022-08-03T02:02:33.249Z,100975.34
2022-08-03T02:07:00.007Z,100968.84
2022-08-03T02:09:42.885Z,100973.38
2022-08-03T02:13:08.604Z,100980.06
2022-08-03T02:16:32.577Z,100973.84
2022-08-03T02:19:55.950Z,100969.34
2022-08-03T02:23:19.555Z,100984.69
2022-08-03T02:26:42.993Z,100989.03
2022-08-03T02:30:08.891Z,100982.63
2022-08-03T02:33:35.655Z,100989.50
2022-08-03T02:37:01.540Z,100982.63
2022-08-03T02:40:27.349Z,100994.41
2022-08-03T02:44:05.481Z,100986.59
2022-08-03T02:47:53.148Z,100970.53
2022-08-03T02:51:13.695Z,100989.75
2022-08-03T02:54:37.567Z,100992.19
2022-08-03T02:58:02.185Z,100994.84
2022-08-03T03:01:25.829Z,100983.72
2022-08-03T03:05:52.106Z,100987.03
2022-08-03T03:08:31.915Z,100999.38
2022-08-03T03:11:55.240Z,100996.28
2022-08-03T03:15:19.092Z,100982.31
2022-08-03T03:18:41.694Z,100998.16
2022-08-03T03:22:05.149Z,100997.78
2022-08-03T03:25:27.439Z,100997.28
2022-08-03T03:28:49.904Z,100999.81
2022-08-03T03:32:13.738Z,101007.69
2022-08-03T03:35:38.930Z,100994.69
2022-08-03T03:39:15.243Z,100984.44
2022-08-03T03:42:38.968Z,101023.94
2022-08-03T03:46:02.077Z,101009.16
2022-08-03T03:49:25.967Z,101011.13
2022-08-03T03:52:48.059Z,101031.03
2022-08-03T03:56:09.935Z,101032.09
2022-08-03T03:59:31.968Z,101029.69
2022-08-03T04:02:57.758Z,101039.66
2022-08-03T04:06:38.922Z,101040.19
2022-08-03T04:10:19.603Z,101036.38
2022-08-03T04:13:45.034Z,101043.91
2022-08-03T04:17:10.570Z,101057.25
2022-08-03T04:20:34.106Z,101047.78
2022-08-03T04:24:04.952Z,101050.63
2022-08-03T04:27:30.099Z,101055.34
2022-08-03T04:30:55.252Z,101054.38
2022-08-03T04:34:17.793Z,101031.50
2022-08-03T04:37:43.328Z,101052.38
2022-08-03T04:41:08.795Z,101060.44
2022-08-03T04:44:35.403Z,101064.84
2022-08-03T04:47:58.596Z,101066.91
2022-08-03T04:51:20.971Z,101069.94
2022-08-03T04:54:45.887Z,101066.72
2022-08-03T04:58:14.459Z,101063.63
2022-08-03T05:01:36.890Z,101063.31
2022-08-03T05:04:59.053Z,101066.31
2022-08-03T05:08:28.011Z,101054.53
2022-08-03T05:11:50.413Z,101054.19
2022-08-03T05:15:14.279Z,101056.13
2022-08-03T05:18:37.220Z,101057.47
2022-08-03T05:21:59.704Z,101061.94
2022-08-03T05:25:27.098Z,101066.31
2022-08-03T05:28:51.179Z,101063.81
2022-08-03T05:32:15.444Z,101074.28
2022-08-03T05:36:01.089Z,101066.69
2022-08-03T05:39:21.107Z,101062.09
2022-08-03T05:42:42.953Z,101078.16
2022-08-03T05:46:12.038Z,101068.47
2022-08-03T05:49:37.413Z,101062.69
2022-08-03T05:52:59.609Z,101084.31
2022-08-03T05:56:25.174Z,101065.75
2022-08-03T05:59:54.597Z,101079.59
2022-08-03T06:03:21.192Z,101080.31
2022-08-03T06:06:45.827Z,101069.56
2022-08-03T06:10:36.610Z,101090.31
2022-08-03T06:13:51.862Z,101085.38
2022-08-03T06:17:13.734Z,101084.19
2022-08-03T06:20:37.481Z,101087.91
2022-08-03T06:24:01.144Z,101086.09
2022-08-03T06:27:36.338Z,101099.22
2022-08-03T06:31:02.081Z,101089.06
2022-08-03T06:34:32.838Z,101088.28
2022-08-03T06:37:57.569Z,101091.16
2022-08-03T06:41:20.785Z,101088.44
2022-08-03T06:44:42.870Z,101089.97
2022-08-03T06:48:07.878Z,101091.97
2022-08-03T06:52:03.276Z,101088.44
2022-08-03T06:55:11.932Z,101101.94
2022-08-03T06:58:35.989Z,101100.47
2022-08-03T07:01:58.206Z,101099.91
2022-08-03T07:05:20.487Z,101109.06
2022-08-03T07:08:42.613Z,101109.19
2022-08-03T07:12:06.690Z,101090.56
2022-08-03T07:15:55.728Z,101080.84
2022-08-03T07:19:13.254Z,101090.94
2022-08-03T07:22:35.504Z,101092.66
2022-08-03T07:25:57.937Z,101095.63
2022-08-03T07:29:19.865Z,101079.91
2022-08-03T07:32:50.260Z,101094.72
2022-08-03T07:36:13.207Z,101096.59
2022-08-03T07:39:35.255Z,101111.00
2022-08-03T07:42:58.519Z,101111.53
2022-08-03T07:46:20.523Z,101108.00
2022-08-03T07:49:44.249Z,101110.94
2022-08-03T07:53:06.157Z,101107.25
2022-08-03T07:56:28.411Z,101116.56
2022-08-03T08:00:01.644Z,101104.38
2022-08-03T08:03:26.826Z,101117.50
2022-08-03T08:06:50.433Z,101116.06
2022-08-03T08:10:13.104Z,101116.56
2022-08-03T08:13:35.563Z,101112.31
2022-08-03T08:16:57.748Z,101120.47
2022-08-03T08:20:30.481Z,101114.25
2022-08-03T08:23:57.822Z,101116.13
2022-08-03T08:27:19.790Z,101118.28
2022-08-03T08:30:41.796Z,101116.06
2022-08-03T08:34:05.836Z,101125.34
2022-08-03T08:37:27.678Z,101129.59
2022-08-03T08:40:51.597Z,101124.91
2022-08-03T08:44:13.416Z,101116.13
2022-08-03T08:47:51.564Z,101126.81
2022-08-03T08:51:15.349Z,101132.19
2022-08-03T08:54:38.732Z,101123.88
2022-08-03T08:58:06.567Z,101126.47
2022-08-03T09:01:29.389Z,101125.81
2022-08-03T09:04:52.124Z,101131.53
2022-08-03T09:08:13.994Z,101118.03
2022-08-03T09:11:51.689Z,101128.13
2022-08-03T09:15:21.753Z,101113.31
2022-08-03T09:18:45.288Z,101115.81
2022-08-03T09:22:12.703Z,101121.69
2022-08-03T09:25:36.059Z,101114.94
2022-08-03T09:29:04.641Z,101123.91
2022-08-03T09:32:31.402Z,101096.84
2022-08-03T09:35:57.892Z,101135.91
2022-08-03T09:39:40.305Z,101130.31
2022-08-03T09:43:02.904Z,101137.50
2022-08-03T09:46:25.241Z,101134.59
2022-08-03T09:50:01.987Z,101140.38
2022-08-03T09:53:25.042Z,101139.53
2022-08-03T09:56:48.885Z,101135.19
2022-08-03T10:00:13.544Z,101136.16
2022-08-03T10:03:46.104Z,101128.28
2022-08-03T10:07:21.907Z,101134.34
2022-08-03T10:10:45.877Z,101134.47
2022-08-03T10:14:10.269Z,101133.47
2022-08-03T10:17:35.203Z,101111.75
2022-08-03T10:21:04.576Z,101135.31
2022-08-03T10:24:30.948Z,101129.25
2022-08-03T10:27:54.732Z,101125.44
2022-08-03T10:31:19.692Z,101127.81
2022-08-03T10:34:44.895Z,101129.38
2022-08-03T10:38:11.594Z,101129.91
2022-08-03T10:41:41.159Z,101130.06
2022-08-03T10:45:09.216Z,101128.81
2022-08-03T10:48:32.921Z,101089.88
2022-08-03T10:51:55.166Z,101106.75
2022-08-03T10:55:52.932Z,101091.41
2022-08-03T10:59:27.384Z,101109.63
2022-08-03T11:03:18.700Z,101117.72
2022-08-03T11:06:41.153Z,101109.09
2022-08-03T11:10:06.553Z,101112.31
2022-08-03T11:13:34.138Z,101109.34
2022-08-03T11:17:14.058Z,101109.88
2022-08-03T11:20:48.805Z,101111.84
2022-08-03T11:24:10.728Z,101105.50
2022-08-03T11:27:34.116Z,101110.00
2022-08-03T11:30:56.506Z,101104.53
2022-08-03T11:34:19.978Z,101107.38
2022-08-03T11:38:05.850Z,101119.06
2022-08-03T11:41:43.282Z,101112.44
2022-08-03T11:45:10.662Z,101111.84
2022-08-03T11:48:37.323Z,101112.06
2022-08-03T11:52:00.881Z,101103.56
2022-08-03T11:55:23.745Z,101117.78
2022-08-03T11:59:03.379Z,101110.00
2022-08-03T12:02:31.338Z,101079.94
2022-08-03T12:05:54.774Z,101118.69
2022-08-03T12:09:21.173Z,101110.78
2022-08-03T12:12:46.658Z,101102.03
2022-08-03T12:16:09.507Z,101110.78
2022-08-03T12:19:43.495Z,101109.63
2022-08-03T12:23:07.165Z,101108.84
2022-08-03T12:26:31.682Z,101112.97
2022-08-03T12:29:58.165Z,101091.94
2022-08-03T12:33:26.199Z,101096.94
2022-08-03T12:36:52.538Z,101099.88
2022-08-03T12:40:20.570Z,101107.81
2022-08-03T12:43:51.050Z,101111.41
2022-08-03T12:47:13.931Z,101117.84
2022-08-03T12:50:38.376Z,101105.69
2022-08-03T12:54:00.642Z,101093.88
2022-08-03T12:57:22.562Z,101112.69
2022-08-03T13:00:56.890Z,101106.03
2022-08-03T13:04:27.748Z,101086.25
2022-08-03T13:07:51.622Z,101108.78
2022-08-03T13:11:55.760Z,101112.16
2022-08-03T13:15:08.977Z,101119.91
2022-08-03T13:18:32.762Z,101105.81
2022-08-03T13:22:04.215Z,101105.81
2022-08-03T13:25:27.059Z,101077.06
2022-08-03T13:28:49.387Z,101113.44
2022-08-03T13:32:12.079Z,101107.38
2022-08-03T13:35:35.497Z,101099.56
2022-08-03T13:38:57.375Z,101105.75
2022-08-03T13:42:19.427Z,101078.31
2022-08-03T13:45:44.635Z,101110.22
2022-08-03T13:49:10.005Z,101098.78
2022-08-03T13:52:35.396Z,101089.34
2022-08-03T13:55:57.245Z,101094.06
2022-08-03T13:59:19.000Z,101096.53
2022-08-03T14:02:40.898Z,101098.72
2022-08-03T14:06:02.771Z,101100.94
2022-08-03T14:09:26.461Z,101095.28
2022-08-03T14:12:48.310Z,101092.53
2022-08-03T14:16:10.182Z,101100.25
2022-08-03T14:19:32.084Z,101094.19
2022-08-03T14:23:14.348Z,101096.88
2022-08-03T14:26:38.032Z,101099.56
2022-08-03T14:30:01.591Z,101098.41
2022-08-03T14:33:23.518Z,101096.03
2022-08-03T14:36:47.361Z,101100.94
2022-08-03T14:40:10.382Z,101099.25
2022-08-03T14:43:34.425Z,101088.19
2022-08-03T14:46:56.442Z,101090.91
2022-08-03T14:50:36.115Z,101087.25
2022-08-03T14:54:00.854Z,101094.97
2022-08-03T14:57:22.921Z,101089.75
2022-08-03T15:00:46.306Z,101073.94
2022-08-03T15:04:08.596Z,101089.03
2022-08-03T15:07:30.391Z,101087.50
2022-08-03T15:10:56.563Z,101084.50
2022-08-03T15:14:18.662Z,101078.44
2022-08-03T15:18:00.430Z,101087.56
2022-08-03T15:21:46.885Z,101082.44
2022-08-03T15:26:04.113Z,101073.72
2022-08-03T15:28:47.552Z,101083.56
2022-08-03T15:32:09.884Z,101072.19
2022-08-03T15:35:33.417Z,101080.91
2022-08-03T15:38:55.722Z,101081.19
2022-08-03T15:42:18.071Z,101088.19
2022-08-03T15:45:41.874Z,101091.59
2022-08-03T15:49:04.295Z,101088.56
2022-08-03T15:52:28.074Z,101086.31
2022-08-03T15:55:50.292Z,101083.25
2022-08-03T15:59:14.085Z,101078.22
2022-08-03T16:02:36.338Z,101085.19
2022-08-03T16:05:58.144Z,101080.38
2022-08-03T16:09:22.816Z,101082.22
2022-08-03T16:12:45.623Z,101074.06
2022-08-03T16:16:07.943Z,101072.06
2022-08-03T16:19:29.809Z,101055.41
2022-08-03T16:22:51.834Z,101067.50
2022-08-03T16:26:15.569Z,101073.69
2022-08-03T16:29:37.922Z,101050.16
2022-08-03T16:32:59.860Z,101066.22
2022-08-03T16:36:22.028Z,101082.34
2022-08-03T16:39:44.211Z,101086.59
2022-08-03T16:43:18.127Z,101084.78
2022-08-03T16:46:43.157Z,101078.16
2022-08-03T16:50:12.791Z,101076.59
2022-08-03T16:54:05.502Z,101079.13
2022-08-03T16:57:56.530Z,101080.16
2022-08-03T17:01:10.949Z,101085.13
2022-08-03T17:04:44.848Z,101074.09
2022-08-03T17:08:12.765Z,101089.47
2022-08-03T17:11:35.697Z,101081.47
2022-08-03T17:14:58.985Z,101084.13
2022-08-03T17:18:26.620Z,101078.25
2022-08-03T17:22:01.533Z,101091.56
2022-08-03T17:25:51.224Z,101098.03
2022-08-03T17:29:13.047Z,101097.66
2022-08-03T17:32:37.004Z,101097.13
2022-08-03T17:36:06.941Z,101092.84
2022-08-03T17:39:55.559Z,101098.31
2022-08-03T17:44:13.579Z,101106.81
2022-08-03T17:46:57.741Z,101096.97
2022-08-03T17:50:25.944Z,101101.88
2022-08-03T17:54:03.828Z,101105.56
2022-08-03T17:58:01.204Z,101106.84
2022-08-03T18:02:05.617Z,101103.06
2022-08-03T18:05:22.009Z,101115.50
2022-08-03T18:08:49.610Z,101110.63
2022-08-03T18:12:15.511Z,101111.00
2022-08-03T18:15:43.528Z,101112.97
2022-08-03T18:19:09.588Z,101090.50
2022-08-03T18:22:35.962Z,101103.28
2022-08-03T18:25:59.403Z,101121.50
2022-08-03T18:29:23.303Z,101117.66
2022-08-03T18:33:00.630Z,101128.47
2022-08-03T18:36:30.071Z,101125.66
2022-08-03T18:39:53.351Z,101110.28
2022-08-03T18:43:17.672Z,101132.41
2022-08-03T18:46:51.992Z,101137.47
2022-08-03T18:50:20.279Z,101106.28
2022-08-03T18:54:02.310Z,101139.84
2022-08-03T18:57:38.201Z,101127.66
2022-08-03T19:01:57.427Z,101125.63
2022-08-03T19:04:55.972Z,101140.47
2022-08-03T19:08:30.016Z,101129.56
2022-08-03T19:12:14.045Z,101132.25
2022-08-03T19:15:41.463Z,101130.28
2022-08-03T19:19:14.604Z,101138.78
2022-08-03T19:22:39.927Z,101130.38
2022-08-03T19:26:30.299Z,101145.78
2022-08-03T19:29:59.511Z,101135.47
2022-08-03T19:33:29.947Z,101137.44
2022-08-03T19:36:53.138Z,101131.03
2022-08-03T19:40:19.770Z,101151.81
2022-08-03T19:43:49.365Z,101114.88
2022-08-03T19:47:23.696Z,101142.22
2022-08-03T19:50:47.103Z,101142.66
2022-08-03T19:54:15.113Z,101139.03
2022-08-03T19:57:42.222Z,101143.63
2022-08-03T20:01:19.418Z,101132.31
2022-08-03T20:04:45.811Z,101141.34
2022-08-03T20:08:08.327Z,101141.97
2022-08-03T20:11:33.228Z,101134.69
2022-08-03T20:15:10.777Z,101141.03
2022-08-03T20:18:38.910Z,101142.28
2022-08-03T20:22:02.438Z,101146.09
2022-08-03T20:25:37.970Z,101139.75
2022-08-03T20:29:09.107Z,101152.22
2022-08-03T20:32:34.545Z,101150.31
2022-08-03T20:35:56.523Z,101155.19
2022-08-03T20:39:19.502Z,101147.06
2022-08-03T20:42:41.862Z,101144.72
2022-08-03T20:46:31.868Z,101149.91
2022-08-03T20:49:48.298Z,101155.69
2022-08-03T20:53:11.972Z,101158.66
2022-08-03T20:56:35.572Z,101159.91
2022-08-03T21:00:00.086Z,101154.06
2022-08-03T21:03:22.329Z,101159.75
2022-08-03T21:06:53.187Z,101160.91
2022-08-03T21:10:17.374Z,101165.38
2022-08-03T21:13:46.709Z,101139.94
2022-08-03T21:17:19.471Z,101169.25
2022-08-03T21:20:54.027Z,101168.50
2022-08-03T21:24:19.295Z,101170.41
2022-08-03T21:27:41.875Z,101166.25
2022-08-03T21:31:04.988Z,101170.03
2022-08-03T21:34:29.085Z,101170.22
2022-08-03T21:38:11.902Z,101154.66
2022-08-03T21:41:37.343Z,101155.25
2022-08-03T21:44:59.626Z,101154.72
2022-08-03T21:48:25.560Z,101172.81
2022-08-03T21:51:50.775Z,101143.97
2022-08-03T21:55:18.380Z,101169.50
2022-08-03T21:58:51.174Z,101137.47
2022-08-03T22:02:24.095Z,101169.03
2022-08-03T22:05:46.558Z,101158.78
2022-08-03T22:09:10.993Z,101154.09
2022-08-03T22:12:33.360Z,101173.78
2022-08-03T22:15:57.191Z,101171.41
2022-08-03T22:19:19.329Z,101161.81
2022-08-03T22:22:44.892Z,101164.84
2022-08-03T22:26:32.263Z,101166.78
2022-08-03T22:29:58.138Z,101170.66
2022-08-03T22:33:22.392Z,101168.28
2022-08-03T22:36:44.475Z,101170.47
2022-08-03T22:40:10.164Z,101166.31
2022-08-03T22:43:36.359Z,101148.59
2022-08-03T22:46:59.733Z,101157.38
2022-08-03T22:50:32.916Z,101162.66
2022-08-03T22:53:56.103Z,101158.66
2022-08-03T22:57:19.103Z,101161.31
2022-08-03T23:00:46.933Z,101167.59
2022-08-03T23:04:16.105Z,101158.38
2022-08-03T23:07:40.806Z,101157.72
2022-08-03T23:11:08.873Z,101165.63
2022-08-03T23:14:31.836Z,101165.72
2022-08-03T23:17:58.583Z,101163.53
2022-08-03T23:22:00.723Z,101168.63
2022-08-03T23:25:05.015Z,101159.97
2022-08-03T23:28:31.270Z,101163.63
2022-08-03T23:31:55.345Z,101163.72
2022-08-03T23:36:27.978Z,101167.22
2022-08-03T23:39:19.006Z,101171.63
2022-08-03T23:42:42.918Z,101170.03
2022-08-03T23:46:05.822Z,101176.91
2022-08-03T23:49:27.732Z,101157.97
2022-08-03T23:52:59.151Z,101162.97
2022-08-03T23:56:29.961Z,101171.53
